Terminal Aerodrome Forecast
Issued by NWS

Home | Current Version | Previous Version | Text Only | Print | Product List | Glossary On
Versions: 1 2 3 4 5 6 7 8 9 10 11 12 13
000
FTUS45 KREV 042343
TAFMMH
TAF
KMMH 042343Z 0500/0524 24019G30KT P6SM FEW180
     FM050200 26010G20KT P6SM SKC
     FM050500 26009KT P6SM SKC
     FM052100 24009G18KT P6SM FEW220=

USA.gov is the U.S. government's official web portal to all federal, state and local government web resources and services.